sensor_id;sensor_type;location;lat;lon;timestamp;temperature;humidity
21508;DHT22;10915;54.352;9.074;2023-08-17T00:02:04;13.80;99.90
21508;DHT22;10915;54.352;9.074;2023-08-17T00:04:30;13.80;99.90
21508;DHT22;10915;54.352;9.074;2023-08-17T00:06:55;13.70;99.90
21508;DHT22;10915;54.352;9.074;2023-08-17T00:09:21;13.70;99.90
21508;DHT22;10915;54.352;9.074;2023-08-17T00:11:47;13.70;99.90
21508;DHT22;10915;54.352;9.074;2023-08-17T00:14:13;13.60;99.90
21508;DHT22;10915;54.352;9.074;2023-08-17T00:16:39;13.60;99.90
21508;DHT22;10915;54.352;9.074;2023-08-17T00:19:04;13.60;99.90
21508;DHT22;10915;54.352;9.074;2023-08-17T00:21:30;13.50;99.90
21508;DHT22;10915;54.352;9.074;2023-08-17T00:23:56;13.40;99.90
21508;DHT22;10915;54.352;9.074;2023-08-17T00:26:21;13.40;99.90
21508;DHT22;10915;54.352;9.074;2023-08-17T00:28:47;13.40;99.90
21508;DHT22;10915;54.352;9.074;2023-08-17T00:31:13;13.40;99.90
21508;DHT22;10915;54.352;9.074;2023-08-17T00:33:38;13.30;99.90
21508;DHT22;10915;54.352;9.074;2023-08-17T00:36:04;13.40;99.90
21508;DHT22;10915;54.352;9.074;2023-08-17T00:38:30;13.40;99.90
21508;DHT22;10915;54.352;9.074;2023-08-17T00:40:55;13.40;99.90
21508;DHT22;10915;54.352;9.074;2023-08-17T00:43:21;13.40;99.90
21508;DHT22;10915;54.352;9.074;2023-08-17T00:45:47;13.40;99.90
21508;DHT22;10915;54.352;9.074;2023-08-17T00:48:13;13.40;99.90
21508;DHT22;10915;54.352;9.074;2023-08-17T00:50:40;13.40;99.90
21508;DHT22;10915;54.352;9.074;2023-08-17T00:53:06;13.40;99.90
21508;DHT22;10915;54.352;9.074;2023-08-17T00:55:33;13.40;99.90
21508;DHT22;10915;54.352;9.074;2023-08-17T00:57:59;13.40;99.90
21508;DHT22;10915;54.352;9.074;2023-08-17T01:00:25;13.40;99.90
21508;DHT22;10915;54.352;9.074;2023-08-17T01:02:53;13.30;99.90
21508;DHT22;10915;54.352;9.074;2023-08-17T01:05:19;13.40;99.90
21508;DHT22;10915;54.352;9.074;2023-08-17T01:07:45;13.40;99.90
21508;DHT22;10915;54.352;9.074;2023-08-17T01:10:11;13.40;99.90
21508;DHT22;10915;54.352;9.074;2023-08-17T01:12:44;13.40;99.90
21508;DHT22;10915;54.352;9.074;2023-08-17T01:15:24;13.50;99.90
21508;DHT22;10915;54.352;9.074;2023-08-17T01:18:21;13.50;99.90
21508;DHT22;10915;54.352;9.074;2023-08-17T01:20:49;13.40;99.90
21508;DHT22;10915;54.352;9.074;2023-08-17T01:23:14;13.40;99.90
21508;DHT22;10915;54.352;9.074;2023-08-17T01:25:40;13.40;99.90
21508;DHT22;10915;54.352;9.074;2023-08-17T01:28:06;13.40;99.90
21508;DHT22;10915;54.352;9.074;2023-08-17T01:30:44;13.40;99.90
21508;DHT22;10915;54.352;9.074;2023-08-17T01:33:14;13.30;99.90
21508;DHT22;10915;54.352;9.074;2023-08-17T01:35:57;13.20;99.90
21508;DHT22;10915;54.352;9.074;2023-08-17T01:38:26;13.10;99.90
21508;DHT22;10915;54.352;9.074;2023-08-17T01:40:55;13.10;99.90
21508;DHT22;10915;54.352;9.074;2023-08-17T01:43:22;13.10;99.90
21508;DHT22;10915;54.352;9.074;2023-08-17T01:45:48;13.10;99.90
21508;DHT22;10915;54.352;9.074;2023-08-17T01:48:14;13.10;99.90
21508;DHT22;10915;54.352;9.074;2023-08-17T01:50:39;13.10;99.90
21508;DHT22;10915;54.352;9.074;2023-08-17T01:53:05;13.00;99.90
21508;DHT22;10915;54.352;9.074;2023-08-17T01:55:30;13.00;99.90
21508;DHT22;10915;54.352;9.074;2023-08-17T01:57:56;13.00;99.90
21508;DHT22;10915;54.352;9.074;2023-08-17T02:00:22;13.00;99.90
21508;DHT22;10915;54.352;9.074;2023-08-17T02:02:47;13.10;99.90
21508;DHT22;10915;54.352;9.074;2023-08-17T02:05:13;13.10;99.90
21508;DHT22;10915;54.352;9.074;2023-08-17T02:07:38;13.00;99.90
21508;DHT22;10915;54.352;9.074;2023-08-17T02:10:04;13.00;99.90
21508;DHT22;10915;54.352;9.074;2023-08-17T02:12:30;13.00;99.90
21508;DHT22;10915;54.352;9.074;2023-08-17T02:14:56;13.10;99.90
21508;DHT22;10915;54.352;9.074;2023-08-17T02:17:22;13.10;99.90
21508;DHT22;10915;54.352;9.074;2023-08-17T02:19:48;13.10;99.90
21508;DHT22;10915;54.352;9.074;2023-08-17T02:22:14;13.10;99.90
21508;DHT22;10915;54.352;9.074;2023-08-17T02:24:40;13.20;99.90
21508;DHT22;10915;54.352;9.074;2023-08-17T02:27:06;13.10;99.90
21508;DHT22;10915;54.352;9.074;2023-08-17T02:29:32;13.10;99.90
21508;DHT22;10915;54.352;9.074;2023-08-17T02:31:57;13.10;99.90
21508;DHT22;10915;54.352;9.074;2023-08-17T02:34:23;13.20;99.90
21508;DHT22;10915;54.352;9.074;2023-08-17T02:36:48;13.10;99.90
21508;DHT22;10915;54.352;9.074;2023-08-17T02:39:14;13.10;99.90
21508;DHT22;10915;54.352;9.074;2023-08-17T02:41:40;13.10;99.90
21508;DHT22;10915;54.352;9.074;2023-08-17T02:44:06;13.20;99.90
21508;DHT22;10915;54.352;9.074;2023-08-17T02:46:32;13.20;99.90
21508;DHT22;10915;54.352;9.074;2023-08-17T02:48:57;13.20;99.90
21508;DHT22;10915;54.352;9.074;2023-08-17T02:51:23;13.20;99.90
21508;DHT22;10915;54.352;9.074;2023-08-17T02:53:48;13.20;99.90
21508;DHT22;10915;54.352;9.074;2023-08-17T02:56:14;13.20;99.90
21508;DHT22;10915;54.352;9.074;2023-08-17T02:58:39;13.30;99.90
21508;DHT22;10915;54.352;9.074;2023-08-17T03:01:07;13.30;99.90
21508;DHT22;10915;54.352;9.074;2023-08-17T03:03:32;13.30;99.90
21508;DHT22;10915;54.352;9.074;2023-08-17T03:05:58;13.30;99.90
21508;DHT22;10915;54.352;9.074;2023-08-17T03:08:23;13.30;99.90
21508;DHT22;10915;54.352;9.074;2023-08-17T03:10:49;13.30;99.90
21508;DHT22;10915;54.352;9.074;2023-08-17T03:13:15;13.30;99.90
21508;DHT22;10915;54.352;9.074;2023-08-17T03:15:40;13.30;99.90
21508;DHT22;10915;54.352;9.074;2023-08-17T03:18:06;13.20;99.90
21508;DHT22;10915;54.352;9.074;2023-08-17T03:20:32;13.30;99.90
21508;DHT22;10915;54.352;9.074;2023-08-17T03:22:57;13.30;99.90
21508;DHT22;10915;54.352;9.074;2023-08-17T03:25:23;13.30;99.90
21508;DHT22;10915;54.352;9.074;2023-08-17T03:27:48;13.30;99.90
21508;DHT22;10915;54.352;9.074;2023-08-17T03:30:14;13.30;99.90
21508;DHT22;10915;54.352;9.074;2023-08-17T03:32:40;13.30;99.90
21508;DHT22;10915;54.352;9.074;2023-08-17T03:35:06;13.30;99.90
21508;DHT22;10915;54.352;9.074;2023-08-17T03:37:32;13.30;99.90
21508;DHT22;10915;54.352;9.074;2023-08-17T03:39:58;13.30;99.90
21508;DHT22;10915;54.352;9.074;2023-08-17T03:42:26;13.30;99.90
21508;DHT22;10915;54.352;9.074;2023-08-17T03:44:51;13.30;99.90
21508;DHT22;10915;54.352;9.074;2023-08-17T03:47:17;13.30;99.90
21508;DHT22;10915;54.352;9.074;2023-08-17T03:49:43;13.30;99.90
21508;DHT22;10915;54.352;9.074;2023-08-17T03:52:08;13.30;99.90
21508;DHT22;10915;54.352;9.074;2023-08-17T03:54:35;13.30;99.90
21508;DHT22;10915;54.352;9.074;2023-08-17T03:57:00;13.30;99.90
21508;DHT22;10915;54.352;9.074;2023-08-17T03:59:26;13.30;99.90
21508;DHT22;10915;54.352;9.074;2023-08-17T04:01:52;13.30;99.90
21508;DHT22;10915;54.352;9.074;2023-08-17T04:04:18;13.20;99.90
21508;DHT22;10915;54.352;9.074;2023-08-17T04:06:43;13.20;99.90
21508;DHT22;10915;54.352;9.074;2023-08-17T04:09:09;13.20;99.90
21508;DHT22;10915;54.352;9.074;2023-08-17T04:11:36;13.20;99.90
21508;DHT22;10915;54.352;9.074;2023-08-17T04:14:06;13.20;99.90
21508;DHT22;10915;54.352;9.074;2023-08-17T04:16:33;13.10;99.90
21508;DHT22;10915;54.352;9.074;2023-08-17T04:18:59;13.10;99.90
21508;DHT22;10915;54.352;9.074;2023-08-17T04:21:24;13.00;99.90
21508;DHT22;10915;54.352;9.074;2023-08-17T04:23:50;13.00;99.90
21508;DHT22;10915;54.352;9.074;2023-08-17T04:26:15;12.90;99.90
21508;DHT22;10915;54.352;9.074;2023-08-17T04:28:41;12.90;99.90
21508;DHT22;10915;54.352;9.074;2023-08-17T04:31:07;12.90;99.90
21508;DHT22;10915;54.352;9.074;2023-08-17T04:33:32;12.90;99.90
21508;DHT22;10915;54.352;9.074;2023-08-17T04:35:58;12.90;99.90
21508;DHT22;10915;54.352;9.074;2023-08-17T04:38:25;12.90;99.90
21508;DHT22;10915;54.352;9.074;2023-08-17T04:40:50;12.80;99.90
21508;DHT22;10915;54.352;9.074;2023-08-17T04:43:16;12.80;99.90
21508;DHT22;10915;54.352;9.074;2023-08-17T04:45:42;12.90;99.90
21508;DHT22;10915;54.352;9.074;2023-08-17T04:48:08;12.90;99.90
21508;DHT22;10915;54.352;9.074;2023-08-17T04:50:33;12.90;99.90
21508;DHT22;10915;54.352;9.074;2023-08-17T04:52:59;12.90;99.90
21508;DHT22;10915;54.352;9.074;2023-08-17T04:55:24;12.90;99.90
21508;DHT22;10915;54.352;9.074;2023-08-17T04:57:50;12.90;99.90
21508;DHT22;10915;54.352;9.074;2023-08-17T05:00:16;12.90;99.90
21508;DHT22;10915;54.352;9.074;2023-08-17T05:02:42;12.90;99.90
21508;DHT22;10915;54.352;9.074;2023-08-17T05:05:10;12.90;99.90
21508;DHT22;10915;54.352;9.074;2023-08-17T05:07:36;12.90;99.90
21508;DHT22;10915;54.352;9.074;2023-08-17T05:10:02;13.00;99.90
21508;DHT22;10915;54.352;9.074;2023-08-17T05:12:28;13.00;99.90
21508;DHT22;10915;54.352;9.074;2023-08-17T05:14:53;13.00;99.90
21508;DHT22;10915;54.352;9.074;2023-08-17T05:17:19;13.10;99.90
21508;DHT22;10915;54.352;9.074;2023-08-17T05:19:45;13.10;99.90
21508;DHT22;10915;54.352;9.074;2023-08-17T05:22:12;13.10;99.90
21508;DHT22;10915;54.352;9.074;2023-08-17T05:24:38;13.10;99.90
21508;DHT22;10915;54.352;9.074;2023-08-17T05:27:04;13.10;99.90
21508;DHT22;10915;54.352;9.074;2023-08-17T05:29:30;13.10;99.90
21508;DHT22;10915;54.352;9.074;2023-08-17T05:31:59;13.10;99.90
21508;DHT22;10915;54.352;9.074;2023-08-17T05:34:25;13.20;99.90
21508;DHT22;10915;54.352;9.074;2023-08-17T05:36:50;13.20;99.90
21508;DHT22;10915;54.352;9.074;2023-08-17T05:39:16;13.30;99.90
21508;DHT22;10915;54.352;9.074;2023-08-17T05:41:42;13.30;99.90
21508;DHT22;10915;54.352;9.074;2023-08-17T05:44:07;13.30;99.90
21508;DHT22;10915;54.352;9.074;2023-08-17T05:46:34;13.30;99.90
21508;DHT22;10915;54.352;9.074;2023-08-17T05:49:01;13.30;99.90
21508;DHT22;10915;54.352;9.074;2023-08-17T05:51:26;13.40;99.90
21508;DHT22;10915;54.352;9.074;2023-08-17T05:53:52;13.40;99.90
21508;DHT22;10915;54.352;9.074;2023-08-17T05:56:18;13.50;99.90
21508;DHT22;10915;54.352;9.074;2023-08-17T05:58:43;13.60;99.90
21508;DHT22;10915;54.352;9.074;2023-08-17T06:01:10;13.60;99.90
21508;DHT22;10915;54.352;9.074;2023-08-17T06:03:37;13.60;99.90
21508;DHT22;10915;54.352;9.074;2023-08-17T06:06:03;13.70;99.90
21508;DHT22;10915;54.352;9.074;2023-08-17T06:08:29;13.70;99.90
21508;DHT22;10915;54.352;9.074;2023-08-17T06:10:55;13.80;99.90
21508;DHT22;10915;54.352;9.074;2023-08-17T06:13:21;13.90;99.90
21508;DHT22;10915;54.352;9.074;2023-08-17T06:15:52;13.90;99.90
21508;DHT22;10915;54.352;9.074;2023-08-17T06:18:18;14.00;99.90
21508;DHT22;10915;54.352;9.074;2023-08-17T06:20:45;14.10;99.90
21508;DHT22;10915;54.352;9.074;2023-08-17T06:23:12;14.10;99.90
21508;DHT22;10915;54.352;9.074;2023-08-17T06:25:38;14.10;99.90
21508;DHT22;10915;54.352;9.074;2023-08-17T06:28:05;14.20;99.90
21508;DHT22;10915;54.352;9.074;2023-08-17T06:30:31;14.30;99.90
21508;DHT22;10915;54.352;9.074;2023-08-17T06:32:57;14.40;99.90
21508;DHT22;10915;54.352;9.074;2023-08-17T06:35:22;14.50;99.90
21508;DHT22;10915;54.352;9.074;2023-08-17T06:37:48;14.60;99.90
21508;DHT22;10915;54.352;9.074;2023-08-17T06:40:13;14.60;99.90
21508;DHT22;10915;54.352;9.074;2023-08-17T06:42:39;14.70;99.90
21508;DHT22;10915;54.352;9.074;2023-08-17T06:45:05;14.60;99.90
21508;DHT22;10915;54.352;9.074;2023-08-17T06:47:31;14.60;99.90
21508;DHT22;10915;54.352;9.074;2023-08-17T06:49:56;14.60;99.90
21508;DHT22;10915;54.352;9.074;2023-08-17T06:52:24;14.60;99.90
21508;DHT22;10915;54.352;9.074;2023-08-17T06:54:49;14.70;99.90
21508;DHT22;10915;54.352;9.074;2023-08-17T06:57:15;14.70;99.90
21508;DHT22;10915;54.352;9.074;2023-08-17T06:59:41;14.70;99.90
21508;DHT22;10915;54.352;9.074;2023-08-17T07:02:07;14.80;99.90
21508;DHT22;10915;54.352;9.074;2023-08-17T07:04:32;14.90;99.90
21508;DHT22;10915;54.352;9.074;2023-08-17T07:06:58;14.90;99.90
21508;DHT22;10915;54.352;9.074;2023-08-17T07:09:26;15.00;99.90
21508;DHT22;10915;54.352;9.074;2023-08-17T07:11:53;15.10;99.90
21508;DHT22;10915;54.352;9.074;2023-08-17T07:14:18;15.10;99.90
21508;DHT22;10915;54.352;9.074;2023-08-17T07:16:44;15.10;99.90
21508;DHT22;10915;54.352;9.074;2023-08-17T07:19:10;15.10;99.90
21508;DHT22;10915;54.352;9.074;2023-08-17T07:21:36;15.20;99.90
21508;DHT22;10915;54.352;9.074;2023-08-17T07:24:12;15.20;99.90
21508;DHT22;10915;54.352;9.074;2023-08-17T07:26:38;15.30;99.90
21508;DHT22;10915;54.352;9.074;2023-08-17T07:29:04;15.30;99.90
21508;DHT22;10915;54.352;9.074;2023-08-17T07:31:30;15.30;99.90
21508;DHT22;10915;54.352;9.074;2023-08-17T07:33:56;15.30;99.90
21508;DHT22;10915;54.352;9.074;2023-08-17T07:36:21;15.30;99.90
21508;DHT22;10915;54.352;9.074;2023-08-17T07:38:47;15.30;99.90
21508;DHT22;10915;54.352;9.074;2023-08-17T07:41:12;15.30;99.90
21508;DHT22;10915;54.352;9.074;2023-08-17T07:43:38;15.30;99.90
21508;DHT22;10915;54.352;9.074;2023-08-17T07:46:04;15.30;99.90
21508;DHT22;10915;54.352;9.074;2023-08-17T07:48:29;15.30;99.90
21508;DHT22;10915;54.352;9.074;2023-08-17T07:50:59;15.40;99.90
21508;DHT22;10915;54.352;9.074;2023-08-17T07:53:25;15.40;99.90
21508;DHT22;10915;54.352;9.074;2023-08-17T07:55:50;15.40;99.90
21508;DHT22;10915;54.352;9.074;2023-08-17T07:58:16;15.40;99.90
21508;DHT22;10915;54.352;9.074;2023-08-17T08:00:42;15.50;99.90
21508;DHT22;10915;54.352;9.074;2023-08-17T08:03:07;15.50;99.90
21508;DHT22;10915;54.352;9.074;2023-08-17T08:05:33;15.60;99.90
21508;DHT22;10915;54.352;9.074;2023-08-17T08:07:59;15.70;99.90
21508;DHT22;10915;54.352;9.074;2023-08-17T08:10:24;15.70;99.90
21508;DHT22;10915;54.352;9.074;2023-08-17T08:12:50;15.70;99.90
21508;DHT22;10915;54.352;9.074;2023-08-17T08:15:16;15.80;99.90
21508;DHT22;10915;54.352;9.074;2023-08-17T08:17:41;15.80;99.90
21508;DHT22;10915;54.352;9.074;2023-08-17T08:20:07;15.90;99.90
21508;DHT22;10915;54.352;9.074;2023-08-17T08:22:33;15.90;99.90
21508;DHT22;10915;54.352;9.074;2023-08-17T08:24:58;15.90;99.90
21508;DHT22;10915;54.352;9.074;2023-08-17T08:27:24;15.90;99.90
21508;DHT22;10915;54.352;9.074;2023-08-17T08:29:50;15.90;99.90
21508;DHT22;10915;54.352;9.074;2023-08-17T08:32:16;16.00;99.90
21508;DHT22;10915;54.352;9.074;2023-08-17T08:34:41;16.00;99.90
21508;DHT22;10915;54.352;9.074;2023-08-17T08:37:07;15.90;99.90
21508;DHT22;10915;54.352;9.074;2023-08-17T08:39:32;15.90;99.90
21508;DHT22;10915;54.352;9.074;2023-08-17T08:41:58;16.00;99.90
21508;DHT22;10915;54.352;9.074;2023-08-17T08:44:24;16.00;99.90
21508;DHT22;10915;54.352;9.074;2023-08-17T08:46:53;16.00;99.90
21508;DHT22;10915;54.352;9.074;2023-08-17T08:49:20;16.00;99.90
21508;DHT22;10915;54.352;9.074;2023-08-17T08:51:50;16.10;99.90
21508;DHT22;10915;54.352;9.074;2023-08-17T08:54:22;16.20;99.90
21508;DHT22;10915;54.352;9.074;2023-08-17T08:57:01;16.20;99.90
21508;DHT22;10915;54.352;9.074;2023-08-17T08:59:28;16.20;99.90
21508;DHT22;10915;54.352;9.074;2023-08-17T09:01:56;16.20;99.90
21508;DHT22;10915;54.352;9.074;2023-08-17T09:04:23;16.30;99.90
21508;DHT22;10915;54.352;9.074;2023-08-17T09:06:50;16.30;99.90
21508;DHT22;10915;54.352;9.074;2023-08-17T09:09:16;16.40;99.90
21508;DHT22;10915;54.352;9.074;2023-08-17T09:11:43;16.40;99.90
21508;DHT22;10915;54.352;9.074;2023-08-17T09:14:09;16.40;99.90
21508;DHT22;10915;54.352;9.074;2023-08-17T09:16:34;16.40;99.90
21508;DHT22;10915;54.352;9.074;2023-08-17T09:19:01;16.40;99.90
21508;DHT22;10915;54.352;9.074;2023-08-17T09:21:31;16.40;99.90
21508;DHT22;10915;54.352;9.074;2023-08-17T09:23:57;16.40;99.90
21508;DHT22;10915;54.352;9.074;2023-08-17T09:26:23;16.50;99.90
21508;DHT22;10915;54.352;9.074;2023-08-17T09:28:50;16.60;99.90
21508;DHT22;10915;54.352;9.074;2023-08-17T09:31:20;16.50;99.90
21508;DHT22;10915;54.352;9.074;2023-08-17T09:33:50;16.50;99.90
21508;DHT22;10915;54.352;9.074;2023-08-17T09:36:20;16.60;99.90
21508;DHT22;10915;54.352;9.074;2023-08-17T09:38:48;16.60;99.90
21508;DHT22;10915;54.352;9.074;2023-08-17T09:41:15;16.70;99.90
21508;DHT22;10915;54.352;9.074;2023-08-17T09:43:41;16.80;99.90
21508;DHT22;10915;54.352;9.074;2023-08-17T09:46:07;16.80;99.90
21508;DHT22;10915;54.352;9.074;2023-08-17T09:48:35;16.90;99.90
21508;DHT22;10915;54.352;9.074;2023-08-17T09:51:01;17.00;99.90
21508;DHT22;10915;54.352;9.074;2023-08-17T09:53:27;17.10;99.90
21508;DHT22;10915;54.352;9.074;2023-08-17T09:55:53;17.10;99.90
21508;DHT22;10915;54.352;9.074;2023-08-17T09:58:20;17.00;99.90
21508;DHT22;10915;54.352;9.074;2023-08-17T10:00:49;17.10;99.90
21508;DHT22;10915;54.352;9.074;2023-08-17T10:03:15;17.10;99.90
21508;DHT22;10915;54.352;9.074;2023-08-17T10:05:43;17.10;99.90
21508;DHT22;10915;54.352;9.074;2023-08-17T10:08:11;17.20;99.90
21508;DHT22;10915;54.352;9.074;2023-08-17T10:10:42;17.30;99.90
21508;DHT22;10915;54.352;9.074;2023-08-17T10:13:16;17.50;99.90
21508;DHT22;10915;54.352;9.074;2023-08-17T10:21:01;17.60;99.90
21508;DHT22;10915;54.352;9.074;2023-08-17T10:23:28;17.50;99.90
21508;DHT22;10915;54.352;9.074;2023-08-17T10:25:53;17.60;99.90
21508;DHT22;10915;54.352;9.074;2023-08-17T10:28:21;17.70;99.90
21508;DHT22;10915;54.352;9.074;2023-08-17T10:30:47;17.70;99.90
21508;DHT22;10915;54.352;9.074;2023-08-17T10:33:14;17.60;99.90
21508;DHT22;10915;54.352;9.074;2023-08-17T10:35:41;17.60;99.90
21508;DHT22;10915;54.352;9.074;2023-08-17T10:38:08;17.60;99.90
21508;DHT22;10915;54.352;9.074;2023-08-17T10:40:39;17.50;99.90
21508;DHT22;10915;54.352;9.074;2023-08-17T10:43:05;17.60;99.90
21508;DHT22;10915;54.352;9.074;2023-08-17T10:45:32;17.60;99.90
21508;DHT22;10915;54.352;9.074;2023-08-17T10:50:29;17.70;99.90
21508;DHT22;10915;54.352;9.074;2023-08-17T10:52:55;17.70;99.90
21508;DHT22;10915;54.352;9.074;2023-08-17T10:55:40;17.80;99.90
21508;DHT22;10915;54.352;9.074;2023-08-17T10:58:06;17.80;99.90
21508;DHT22;10915;54.352;9.074;2023-08-17T11:00:39;17.90;99.90
21508;DHT22;10915;54.352;9.074;2023-08-17T11:03:07;17.80;99.90
21508;DHT22;10915;54.352;9.074;2023-08-17T11:08:09;17.90;99.90
21508;DHT22;10915;54.352;9.074;2023-08-17T11:10:35;17.90;99.90
21508;DHT22;10915;54.352;9.074;2023-08-17T11:13:01;18.00;99.90
21508;DHT22;10915;54.352;9.074;2023-08-17T11:15:41;17.90;99.90
21508;DHT22;10915;54.352;9.074;2023-08-17T11:18:11;17.90;99.90
21508;DHT22;10915;54.352;9.074;2023-08-17T11:20:39;18.00;99.90
21508;DHT22;10915;54.352;9.074;2023-08-17T11:23:08;18.00;99.90
21508;DHT22;10915;54.352;9.074;2023-08-17T11:25:34;18.10;99.90
21508;DHT22;10915;54.352;9.074;2023-08-17T11:28:01;18.30;99.90
21508;DHT22;10915;54.352;9.074;2023-08-17T11:30:27;18.40;99.90
21508;DHT22;10915;54.352;9.074;2023-08-17T11:32:54;18.40;99.90
21508;DHT22;10915;54.352;9.074;2023-08-17T11:35:20;18.40;99.90
21508;DHT22;10915;54.352;9.074;2023-08-17T11:37:48;18.40;99.90
21508;DHT22;10915;54.352;9.074;2023-08-17T11:40:16;18.50;99.90
21508;DHT22;10915;54.352;9.074;2023-08-17T11:42:43;18.60;99.90
21508;DHT22;10915;54.352;9.074;2023-08-17T11:45:09;18.60;99.90
21508;DHT22;10915;54.352;9.074;2023-08-17T11:47:38;18.70;99.90
21508;DHT22;10915;54.352;9.074;2023-08-17T11:50:05;18.70;99.90
21508;DHT22;10915;54.352;9.074;2023-08-17T11:52:32;18.70;99.90
21508;DHT22;10915;54.352;9.074;2023-08-17T11:55:08;18.90;99.90
21508;DHT22;10915;54.352;9.074;2023-08-17T11:57:37;19.10;99.90
21508;DHT22;10915;54.352;9.074;2023-08-17T12:00:04;19.40;99.90
21508;DHT22;10915;54.352;9.074;2023-08-17T12:02:35;19.80;99.90
21508;DHT22;10915;54.352;9.074;2023-08-17T12:05:07;20.10;99.90
21508;DHT22;10915;54.352;9.074;2023-08-17T12:07:34;20.30;99.90
21508;DHT22;10915;54.352;9.074;2023-08-17T12:10:03;20.00;99.90
21508;DHT22;10915;54.352;9.074;2023-08-17T12:12:29;19.80;99.90
21508;DHT22;10915;54.352;9.074;2023-08-17T12:14:54;19.70;99.90
21508;DHT22;10915;54.352;9.074;2023-08-17T12:17:21;19.70;99.90
21508;DHT22;10915;54.352;9.074;2023-08-17T12:19:53;19.60;99.90
21508;DHT22;10915;54.352;9.074;2023-08-17T12:22:19;19.60;99.90
21508;DHT22;10915;54.352;9.074;2023-08-17T12:24:45;19.50;99.90
21508;DHT22;10915;54.352;9.074;2023-08-17T12:27:11;19.50;99.90
21508;DHT22;10915;54.352;9.074;2023-08-17T12:29:50;19.50;99.90
21508;DHT22;10915;54.352;9.074;2023-08-17T12:32:19;19.70;99.90
21508;DHT22;10915;54.352;9.074;2023-08-17T12:34:46;19.80;99.90
21508;DHT22;10915;54.352;9.074;2023-08-17T12:37:17;19.90;99.90
21508;DHT22;10915;54.352;9.074;2023-08-17T12:39:43;20.00;99.90
21508;DHT22;10915;54.352;9.074;2023-08-17T12:42:09;20.10;99.90
21508;DHT22;10915;54.352;9.074;2023-08-17T12:44:34;20.10;99.90
21508;DHT22;10915;54.352;9.074;2023-08-17T12:47:00;20.20;99.90
21508;DHT22;10915;54.352;9.074;2023-08-17T12:49:26;20.10;99.90
21508;DHT22;10915;54.352;9.074;2023-08-17T12:51:51;20.10;99.90
21508;DHT22;10915;54.352;9.074;2023-08-17T12:54:17;20.00;99.90
21508;DHT22;10915;54.352;9.074;2023-08-17T12:56:44;20.10;99.90
21508;DHT22;10915;54.352;9.074;2023-08-17T12:59:10;20.00;99.90
21508;DHT22;10915;54.352;9.074;2023-08-17T13:01:35;19.80;99.90
21508;DHT22;10915;54.352;9.074;2023-08-17T13:04:01;19.80;99.90
21508;DHT22;10915;54.352;9.074;2023-08-17T13:06:26;19.80;99.90
21508;DHT22;10915;54.352;9.074;2023-08-17T13:08:52;19.80;99.90
21508;DHT22;10915;54.352;9.074;2023-08-17T13:11:18;19.90;99.90
21508;DHT22;10915;54.352;9.074;2023-08-17T13:13:43;19.90;99.90
21508;DHT22;10915;54.352;9.074;2023-08-17T13:16:09;19.80;99.90
21508;DHT22;10915;54.352;9.074;2023-08-17T13:18:36;20.00;99.90
21508;DHT22;10915;54.352;9.074;2023-08-17T13:21:02;20.10;99.90
21508;DHT22;10915;54.352;9.074;2023-08-17T13:23:28;20.10;99.90
21508;DHT22;10915;54.352;9.074;2023-08-17T13:25:54;20.20;99.90
21508;DHT22;10915;54.352;9.074;2023-08-17T13:28:19;20.20;99.90
21508;DHT22;10915;54.352;9.074;2023-08-17T13:30:45;20.10;99.90
21508;DHT22;10915;54.352;9.074;2023-08-17T13:33:10;20.20;99.90
21508;DHT22;10915;54.352;9.074;2023-08-17T13:35:36;20.30;99.90
21508;DHT22;10915;54.352;9.074;2023-08-17T13:38:02;20.40;99.90
21508;DHT22;10915;54.352;9.074;2023-08-17T13:40:32;20.50;99.90
21508;DHT22;10915;54.352;9.074;2023-08-17T13:42:59;20.70;99.90
21508;DHT22;10915;54.352;9.074;2023-08-17T13:45:25;20.80;99.90
21508;DHT22;10915;54.352;9.074;2023-08-17T13:47:51;21.00;99.90
21508;DHT22;10915;54.352;9.074;2023-08-17T13:50:17;21.10;99.90
21508;DHT22;10915;54.352;9.074;2023-08-17T13:52:44;21.20;99.90
21508;DHT22;10915;54.352;9.074;2023-08-17T13:55:10;21.00;99.90
21508;DHT22;10915;54.352;9.074;2023-08-17T13:57:36;21.00;99.90
21508;DHT22;10915;54.352;9.074;2023-08-17T14:00:02;20.80;99.90
21508;DHT22;10915;54.352;9.074;2023-08-17T14:02:29;20.60;99.90
21508;DHT22;10915;54.352;9.074;2023-08-17T14:04:55;20.50;99.90
21508;DHT22;10915;54.352;9.074;2023-08-17T14:07:20;20.40;99.90
21508;DHT22;10915;54.352;9.074;2023-08-17T14:09:46;20.40;99.90
21508;DHT22;10915;54.352;9.074;2023-08-17T14:12:11;20.40;99.90
21508;DHT22;10915;54.352;9.074;2023-08-17T14:14:37;20.40;99.90
21508;DHT22;10915;54.352;9.074;2023-08-17T14:17:03;20.40;99.90
21508;DHT22;10915;54.352;9.074;2023-08-17T14:19:28;20.50;99.90
21508;DHT22;10915;54.352;9.074;2023-08-17T14:21:54;20.50;99.90
21508;DHT22;10915;54.352;9.074;2023-08-17T14:24:19;20.50;99.90
21508;DHT22;10915;54.352;9.074;2023-08-17T14:26:45;20.50;99.90
21508;DHT22;10915;54.352;9.074;2023-08-17T14:29:11;20.40;99.90
21508;DHT22;10915;54.352;9.074;2023-08-17T14:31:36;20.40;99.90
21508;DHT22;10915;54.352;9.074;2023-08-17T14:34:02;20.40;99.90
21508;DHT22;10915;54.352;9.074;2023-08-17T14:36:28;20.40;99.90
21508;DHT22;10915;54.352;9.074;2023-08-17T14:38:53;20.30;99.90
21508;DHT22;10915;54.352;9.074;2023-08-17T14:41:19;20.20;99.90
21508;DHT22;10915;54.352;9.074;2023-08-17T14:43:45;20.20;99.90
21508;DHT22;10915;54.352;9.074;2023-08-17T14:46:10;20.10;99.90
21508;DHT22;10915;54.352;9.074;2023-08-17T14:48:36;20.00;99.90
21508;DHT22;10915;54.352;9.074;2023-08-17T14:51:01;19.90;99.90
21508;DHT22;10915;54.352;9.074;2023-08-17T14:53:27;19.90;99.90
21508;DHT22;10915;54.352;9.074;2023-08-17T14:55:54;19.90;99.90
21508;DHT22;10915;54.352;9.074;2023-08-17T14:58:21;19.90;99.90
21508;DHT22;10915;54.352;9.074;2023-08-17T15:00:46;19.90;99.90
21508;DHT22;10915;54.352;9.074;2023-08-17T15:03:12;19.80;99.90
21508;DHT22;10915;54.352;9.074;2023-08-17T15:05:41;19.60;99.90
21508;DHT22;10915;54.352;9.074;2023-08-17T15:08:10;19.70;99.90
21508;DHT22;10915;54.352;9.074;2023-08-17T15:10:35;19.70;99.90
21508;DHT22;10915;54.352;9.074;2023-08-17T15:13:01;19.70;99.90
21508;DHT22;10915;54.352;9.074;2023-08-17T15:15:27;19.60;99.90
21508;DHT22;10915;54.352;9.074;2023-08-17T15:17:53;19.70;99.90
21508;DHT22;10915;54.352;9.074;2023-08-17T15:20:19;19.70;99.90
21508;DHT22;10915;54.352;9.074;2023-08-17T15:22:44;19.70;99.90
21508;DHT22;10915;54.352;9.074;2023-08-17T15:25:10;19.60;99.90
21508;DHT22;10915;54.352;9.074;2023-08-17T15:27:35;19.50;99.90
21508;DHT22;10915;54.352;9.074;2023-08-17T15:30:02;19.40;99.90
21508;DHT22;10915;54.352;9.074;2023-08-17T15:32:27;19.30;99.90
21508;DHT22;10915;54.352;9.074;2023-08-17T15:34:53;19.40;99.90
21508;DHT22;10915;54.352;9.074;2023-08-17T15:37:18;19.40;99.90